createdAt,value
2018-04-16T00:01:15.913Z,138.70
2018-04-16T00:03:44.207Z,146.13
2018-04-16T00:06:12.459Z,147.70
2018-04-16T00:08:40.803Z,140.80
2018-04-16T00:11:09.090Z,152.50
2018-04-16T00:13:39.273Z,189.33
2018-04-16T00:16:08.324Z,441.93
2018-04-16T00:18:36.638Z,428.67
2018-04-16T00:21:04.919Z,384.90
2018-04-16T00:23:33.985Z,390.83
2018-04-16T00:26:02.228Z,353.53
2018-04-16T00:28:30.533Z,341.37
2018-04-16T00:30:58.767Z,293.10
2018-04-16T00:33:32.649Z,290.70
2018-04-16T00:36:06.608Z,315.37
2018-04-16T00:38:40.626Z,410.67
2018-04-16T00:41:14.606Z,313.20
2018-04-16T00:43:48.885Z,272.67
2018-04-16T00:46:23.076Z,294.10
2018-04-16T00:48:56.906Z,314.20
2018-04-16T00:51:30.996Z,290.07
2018-04-16T00:54:17.697Z,294.37
2018-04-16T00:56:51.652Z,265.30
2018-04-16T00:59:26.544Z,303.87
2018-04-16T01:02:00.388Z,166.90
2018-04-16T01:04:35.202Z,259.33
2018-04-16T01:07:09.308Z,326.70
2018-04-16T01:09:43.283Z,349.63
2018-04-16T01:12:18.452Z,290.03
2018-04-16T01:14:52.585Z,382.17
2018-04-16T01:17:27.301Z,387.87
2018-04-16T01:20:01.432Z,287.30
2018-04-16T01:22:36.100Z,384.30
2018-04-16T01:25:11.356Z,327.03
2018-04-16T01:27:45.985Z,358.10
2018-04-16T01:33:30.138Z,230.73
2018-04-16T01:36:04.052Z,312.15
2018-04-16T01:38:38.847Z,364.87
2018-04-16T01:41:13.591Z,223.50
2018-04-16T01:43:47.473Z,214.88
2018-04-16T01:46:21.343Z,305.17
2018-04-16T01:48:55.384Z,308.70
2018-04-16T01:51:29.440Z,312.33
2018-04-16T01:54:03.353Z,290.40
2018-04-16T01:56:37.412Z,199.00
2018-04-16T01:59:11.265Z,187.67
2018-04-16T02:01:45.199Z,264.03
2018-04-16T02:04:19.271Z,231.87
2018-04-16T02:06:53.333Z,275.73
2018-04-16T02:09:27.328Z,118.60
2018-04-16T02:12:02.110Z,118.03
2018-04-16T02:14:36.974Z,233.38
2018-04-16T02:17:10.959Z,177.30
2018-04-16T02:19:45.926Z,199.50
2018-04-16T02:22:19.860Z,220.43
2018-04-16T02:24:53.845Z,217.93
2018-04-16T02:30:37.347Z,178.27
2018-04-16T02:33:12.200Z,170.27
2018-04-16T02:35:46.395Z,220.70
2018-04-16T02:38:20.425Z,197.30
2018-04-16T02:40:54.344Z,148.68
2018-04-16T02:43:28.168Z,207.87
2018-04-16T02:46:02.197Z,193.40
2018-04-16T02:48:37.076Z,96.47
2018-04-16T02:51:11.151Z,150.73
2018-04-16T02:53:46.675Z,132.13
2018-04-16T02:56:20.537Z,167.87
2018-04-16T02:58:54.556Z,158.87
2018-04-16T03:01:28.513Z,133.80
2018-04-16T03:04:02.360Z,108.97
2018-04-16T03:06:36.210Z,118.50
2018-04-16T03:09:10.759Z,117.60
2018-04-16T03:11:44.705Z,105.50
2018-04-16T03:14:18.737Z,111.13
2018-04-16T03:16:53.486Z,106.57
2018-04-16T03:19:27.523Z,95.17
2018-04-16T03:22:02.283Z,103.20
2018-04-16T03:24:36.350Z,88.23
2018-04-16T03:27:10.433Z,97.13
2018-04-16T04:15:33.650Z,77.63
2018-04-16T04:18:01.933Z,81.57
2018-04-16T04:20:31.400Z,89.87
2018-04-16T04:23:11.491Z,85.23
2018-04-16T04:25:51.664Z,84.53
2018-04-16T04:28:31.589Z,85.93
2018-04-16T04:30:59.904Z,85.13
2018-04-16T04:33:28.164Z,77.47
2018-04-16T04:35:56.453Z,98.30
2018-04-16T04:38:24.760Z,93.00
2018-04-16T04:40:53.956Z,83.27
2018-04-16T04:43:22.242Z,88.90
2018-04-16T04:45:50.512Z,87.70
2018-04-16T04:48:18.789Z,78.60
2018-04-16T04:50:47.019Z,82.77
2018-04-16T04:53:15.336Z,68.73
2018-04-16T04:55:43.621Z,77.33
2018-04-16T04:58:11.888Z,81.70
2018-04-16T05:00:40.213Z,82.60
2018-04-16T05:03:08.473Z,80.53
2018-04-16T05:05:36.831Z,76.70
2018-04-16T05:08:05.847Z,73.50
2018-04-16T05:10:34.144Z,78.30
2018-04-16T05:13:02.443Z,87.37
2018-04-16T05:15:30.780Z,80.97
2018-04-16T05:17:59.830Z,85.03
2018-04-16T05:20:28.089Z,84.47
2018-04-16T05:22:56.501Z,82.90
2018-04-16T05:25:25.495Z,86.03
2018-04-16T05:27:54.544Z,90.60
2018-04-16T05:30:22.821Z,93.70
2018-04-16T05:32:51.140Z,92.87
2018-04-16T05:35:20.170Z,87.03
2018-04-16T05:37:49.638Z,92.00
2018-04-16T05:40:17.925Z,90.83
2018-04-16T05:42:46.975Z,92.53
2018-04-16T05:45:15.376Z,89.03
2018-04-16T05:47:43.652Z,81.83
2018-04-16T05:50:12.873Z,88.87
2018-04-16T05:52:41.949Z,91.80
2018-04-16T05:55:10.222Z,83.77
2018-04-16T05:57:38.484Z,86.87
2018-04-16T06:00:06.784Z,84.00
2018-04-16T06:02:35.108Z,80.30
2018-04-16T06:05:03.738Z,80.43
2018-04-16T06:07:32.014Z,75.83
2018-04-16T06:10:00.296Z,73.27
2018-04-16T06:12:28.580Z,81.80
2018-04-16T06:14:57.584Z,72.97
2018-04-16T06:17:26.623Z,70.67
2018-04-16T06:19:54.931Z,78.37
2018-04-16T06:22:23.187Z,69.63
2018-04-16T06:24:51.444Z,66.93
2018-04-16T06:27:19.847Z,63.77
2018-04-16T06:29:48.828Z,72.73
2018-04-16T06:32:17.234Z,68.07
2018-04-16T06:34:45.603Z,61.47
2018-04-16T06:37:13.864Z,63.47
2018-04-16T06:39:42.169Z,66.57
2018-04-16T06:42:10.452Z,59.37
2018-04-16T06:44:39.617Z,60.73
2018-04-16T06:47:07.875Z,60.73
2018-04-16T06:49:36.145Z,61.90
2018-04-16T06:52:04.424Z,52.23
2018-04-16T06:54:32.718Z,56.83
2018-04-16T06:57:01.048Z,52.60
2018-04-16T06:59:29.321Z,48.77
2018-04-16T07:01:58.477Z,48.43
2018-04-16T07:04:26.771Z,49.97
2018-04-16T07:06:55.021Z,47.17
2018-04-16T07:09:23.332Z,47.20
2018-04-16T07:11:51.587Z,46.57
2018-04-16T07:14:19.882Z,49.07
2018-04-16T07:16:48.137Z,48.07
2018-04-16T07:19:16.426Z,45.43
2018-04-16T07:21:45.482Z,44.70
2018-04-16T07:24:15.545Z,45.80
2018-04-16T07:26:43.773Z,43.43
2018-04-16T07:29:12.028Z,43.73
2018-04-16T07:31:40.312Z,46.13
2018-04-16T07:34:08.714Z,41.40
2018-04-16T07:36:36.991Z,41.67
2018-04-16T07:39:06.844Z,42.40
2018-04-16T07:41:35.868Z,42.03
2018-04-16T07:44:04.152Z,45.60
2018-04-16T07:46:32.483Z,41.87
2018-04-16T07:49:00.780Z,40.43
2018-04-16T07:51:29.024Z,40.37
2018-04-16T07:53:57.383Z,44.50
2018-04-16T07:56:25.685Z,41.33
2018-04-16T07:58:54.949Z,44.75
2018-04-16T08:01:23.219Z,42.65
2018-04-16T08:03:51.545Z,42.97
2018-04-16T08:06:20.586Z,44.70
2018-04-16T08:08:48.861Z,42.93
2018-04-16T08:11:17.117Z,42.50
2018-04-16T08:13:45.435Z,42.50
2018-04-16T08:16:14.309Z,40.77
2018-04-16T08:18:42.562Z,41.80
2018-04-16T08:21:10.848Z,40.93
2018-04-16T08:23:39.079Z,41.03
2018-04-16T08:26:08.174Z,45.23
2018-04-16T08:28:36.440Z,42.80
2018-04-16T08:31:04.746Z,43.80
2018-04-16T08:33:33.692Z,41.87
2018-04-16T08:36:02.004Z,43.80
2018-04-16T08:38:30.379Z,44.33
2018-04-16T08:40:59.457Z,40.43
2018-04-16T08:43:27.735Z,44.70
2018-04-16T08:45:56.099Z,42.67
2018-04-16T08:48:24.383Z,42.07
2018-04-16T08:50:52.696Z,42.07
2018-04-16T08:53:21.042Z,41.37
2018-04-16T08:55:49.331Z,41.53
2018-04-16T08:58:18.358Z,41.13
2018-04-16T09:00:46.698Z,40.33
2018-04-16T09:03:15.125Z,40.13
2018-04-16T09:05:43.375Z,41.42
2018-04-16T09:08:11.683Z,42.27
2018-04-16T09:10:40.059Z,41.45
2018-04-16T09:13:08.381Z,37.83
2018-04-16T09:15:36.736Z,39.45
2018-04-16T09:18:05.052Z,42.70
2018-04-16T09:20:34.131Z,39.85
2018-04-16T09:23:02.448Z,38.05
2018-04-16T09:25:31.361Z,38.70
2018-04-16T09:27:59.638Z,42.85
2018-04-16T09:30:27.946Z,42.83
2018-04-16T09:32:56.226Z,41.63
2018-04-16T09:35:24.500Z,43.50
2018-04-16T09:37:52.812Z,39.60
2018-04-16T09:40:21.092Z,43.53
2018-04-16T09:42:49.404Z,39.20
2018-04-16T09:45:18.359Z,41.27
2018-04-16T09:47:46.640Z,40.00
2018-04-16T09:50:14.926Z,39.20
2018-04-16T09:52:43.179Z,40.80
2018-04-16T09:55:11.465Z,39.75
2018-04-16T09:57:39.813Z,40.33
2018-04-16T10:00:08.059Z,42.85
2018-04-16T10:02:36.368Z,41.47
2018-04-16T10:05:04.660Z,42.25
2018-04-16T10:07:32.969Z,40.70
2018-04-16T10:10:01.672Z,42.08
2018-04-16T10:12:30.007Z,43.38
2018-04-16T10:14:58.294Z,39.58
2018-04-16T10:17:26.679Z,36.45
2018-04-16T10:19:54.997Z,38.30
2018-04-16T10:22:23.269Z,36.03
2018-04-16T10:24:51.593Z,36.00
2018-04-16T10:27:19.916Z,34.50
2018-04-16T10:29:48.349Z,34.47
2018-04-16T10:32:17.370Z,36.17
2018-04-16T10:34:45.639Z,37.67
2018-04-16T10:37:13.958Z,39.65
2018-04-16T10:39:42.214Z,38.40
2018-04-16T10:42:11.421Z,38.53
2018-04-16T10:44:39.835Z,37.70
2018-04-16T10:47:08.847Z,35.95
2018-04-16T10:49:37.155Z,34.53
2018-04-16T10:52:05.451Z,34.00
2018-04-16T10:54:33.700Z,30.12
2018-04-16T10:57:01.965Z,27.17
2018-04-16T10:59:30.281Z,26.27
2018-04-16T11:01:58.569Z,30.35
2018-04-16T11:04:26.946Z,28.75
2018-04-16T11:06:55.297Z,29.12
2018-04-16T11:09:23.577Z,29.40
2018-04-16T11:11:51.854Z,28.42
2018-04-16T11:14:20.127Z,25.77
2018-04-16T11:16:48.371Z,25.60
2018-04-16T11:19:16.703Z,22.62
2018-04-16T11:21:45.079Z,22.58
2018-04-16T11:24:13.372Z,24.60
2018-04-16T11:26:42.400Z,23.05
2018-04-16T11:29:10.716Z,24.23
2018-04-16T11:31:38.984Z,27.02
2018-04-16T11:34:07.269Z,25.70
2018-04-16T11:36:35.529Z,24.58
2018-04-16T11:39:04.582Z,22.65
2018-04-16T11:41:33.320Z,24.25
2018-04-16T11:44:01.593Z,25.05
2018-04-16T11:46:29.847Z,25.15
2018-04-16T11:48:58.225Z,23.08
2018-04-16T11:51:26.493Z,24.42
2018-04-16T11:53:54.802Z,22.33
2018-04-16T11:56:23.090Z,22.55
2018-04-16T11:58:51.538Z,23.75
2018-04-16T12:01:19.815Z,24.98
2018-04-16T12:03:48.077Z,25.05
2018-04-16T12:06:16.389Z,24.70
2018-04-16T12:08:44.644Z,26.00
2018-04-16T12:11:12.910Z,25.35
2018-04-16T12:13:42.300Z,26.90
2018-04-16T12:16:10.556Z,26.90
2018-04-16T12:18:38.880Z,25.08
2018-04-16T12:21:07.185Z,26.52
2018-04-16T12:23:35.456Z,26.90
2018-04-16T12:26:09.917Z,28.40
2018-04-16T12:28:44.226Z,32.70
2018-04-16T12:31:19.230Z,35.67
2018-04-16T12:33:47.572Z,34.90
2018-04-16T12:36:15.908Z,35.00
2018-04-16T12:38:51.038Z,37.63
2018-04-16T12:41:19.321Z,37.20
2018-04-16T12:43:54.085Z,36.53
2018-04-16T12:46:28.342Z,38.72
2018-04-16T12:48:56.591Z,37.53
2018-04-16T12:51:30.907Z,36.60
2018-04-16T12:54:11.256Z,40.85
2018-04-16T12:56:51.416Z,42.88
2018-04-16T12:59:19.725Z,48.22
2018-04-16T13:01:47.983Z,47.10
2018-04-16T13:04:21.988Z,54.35
2018-04-16T13:06:56.227Z,53.10
2018-04-16T13:09:30.309Z,52.97
2018-04-16T13:11:58.595Z,53.83
2018-04-16T13:14:26.922Z,54.72
2018-04-16T13:16:55.210Z,56.60
2018-04-16T13:19:23.654Z,54.50
2018-04-16T13:21:51.928Z,50.72
2018-04-16T13:24:20.202Z,48.55
2018-04-16T13:27:00.260Z,51.10
2018-04-16T13:29:34.340Z,47.70
2018-04-16T13:32:02.599Z,48.40
2018-04-16T13:34:30.872Z,45.97
2018-04-16T13:36:59.167Z,47.00
2018-04-16T13:39:27.428Z,45.67
2018-04-16T13:42:02.073Z,41.80
2018-04-16T13:44:30.362Z,46.40
2018-04-16T13:46:58.604Z,47.92
2018-04-16T13:49:26.873Z,47.38
2018-04-16T13:51:55.133Z,43.93
2018-04-16T13:54:28.995Z,43.55
2018-04-16T13:56:57.315Z,43.38
2018-04-16T13:59:27.506Z,44.17
2018-04-16T14:01:55.750Z,43.15
2018-04-16T14:04:24.160Z,41.92
2018-04-16T14:06:52.486Z,43.28
2018-04-16T14:09:21.478Z,44.78
2018-04-16T14:11:56.595Z,43.67
2018-04-16T14:14:25.609Z,44.25
2018-04-16T14:16:53.891Z,45.45
2018-04-16T14:19:29.665Z,42.22
2018-04-16T14:21:57.954Z,40.78
2018-04-16T14:24:32.115Z,41.72
2018-04-16T14:27:01.179Z,37.72
2018-04-16T14:29:35.581Z,38.05
2018-04-16T14:32:09.960Z,37.60
2018-04-16T14:34:38.278Z,38.63
2018-04-16T14:37:12.360Z,38.58
2018-04-16T14:39:41.807Z,39.97
2018-04-16T14:42:21.595Z,39.90
2018-04-16T14:44:49.868Z,41.40
2018-04-16T14:47:24.134Z,43.75
2018-04-16T14:49:52.390Z,44.07
2018-04-16T14:52:26.579Z,48.37
2018-04-16T14:54:54.914Z,43.33
2018-04-16T14:57:29.192Z,45.83
2018-04-16T15:00:04.572Z,45.40
2018-04-16T15:02:38.584Z,44.93
2018-04-16T15:05:06.945Z,43.27
2018-04-16T15:07:35.311Z,43.63
2018-04-16T15:10:10.255Z,40.60
2018-04-16T15:12:45.576Z,38.77
2018-04-16T15:15:13.897Z,39.10
2018-04-16T15:17:42.184Z,41.17
2018-04-16T15:20:11.278Z,37.07
2018-04-16T15:22:40.305Z,39.50
2018-04-16T15:25:08.578Z,37.23
2018-04-16T15:27:36.890Z,36.93
2018-04-16T15:30:05.192Z,37.30
2018-04-16T15:32:34.227Z,38.70
2018-04-16T15:35:02.518Z,35.83
2018-04-16T15:37:30.776Z,34.30
2018-04-16T15:39:59.092Z,35.43
2018-04-16T15:42:28.496Z,36.07
2018-04-16T15:44:56.768Z,33.50
2018-04-16T15:47:25.045Z,31.93
2018-04-16T15:49:53.335Z,32.70
2018-04-16T15:52:21.633Z,32.17
2018-04-16T15:54:50.669Z,33.03
2018-04-16T15:57:20.076Z,32.97
2018-04-16T15:59:48.364Z,32.20
2018-04-16T16:02:16.649Z,33.33
2018-04-16T16:04:44.951Z,29.73
2018-04-16T16:07:14.347Z,30.97
2018-04-16T16:09:42.730Z,33.10
2018-04-16T16:12:10.997Z,29.67
2018-04-16T16:14:39.296Z,30.40
2018-04-16T16:17:08.367Z,29.57
2018-04-16T16:19:36.636Z,31.10
2018-04-16T16:22:05.035Z,27.47
2018-04-16T16:24:34.242Z,26.37
2018-04-16T16:27:03.312Z,27.63
2018-04-16T16:29:31.565Z,24.93
2018-04-16T16:31:59.842Z,24.57
2018-04-16T16:34:28.201Z,18.00
2018-04-16T16:36:56.504Z,11.70
2018-04-16T16:39:24.812Z,10.07
2018-04-16T16:41:53.859Z,8.97
2018-04-16T16:44:22.146Z,7.80
2018-04-16T16:46:50.452Z,10.20
2018-04-16T16:49:18.721Z,7.60
2018-04-16T16:51:47.062Z,6.70
2018-04-16T16:54:15.447Z,6.57
2018-04-16T16:56:43.614Z,7.63
2018-04-16T16:59:11.868Z,7.13
2018-04-16T17:01:40.162Z,6.53
2018-04-16T17:04:09.268Z,6.50
2018-04-16T17:06:37.542Z,8.60
2018-04-16T17:09:05.832Z,7.50
2018-04-16T17:11:34.175Z,8.27
2018-04-16T17:14:02.511Z,9.97
2018-04-16T17:16:30.803Z,9.53
2018-04-16T17:18:59.855Z,12.32
2018-04-16T17:21:28.152Z,11.57
2018-04-16T17:23:56.533Z,9.87
2018-04-16T17:26:25.716Z,11.53
2018-04-16T17:28:53.951Z,10.93
2018-04-16T17:31:22.271Z,9.77
2018-04-16T17:33:50.549Z,9.33
2018-04-16T17:36:18.854Z,11.10
2018-04-16T17:38:47.900Z,12.77
2018-04-16T17:41:16.222Z,12.00
2018-04-16T17:43:45.328Z,12.60
2018-04-16T17:46:14.350Z,12.93
2018-04-16T17:48:42.686Z,11.83
2018-04-16T17:51:10.978Z,12.93
2018-04-16T17:53:40.071Z,13.20
2018-04-16T17:56:09.083Z,15.77
2018-04-16T17:58:37.358Z,15.07
2018-04-16T18:01:05.775Z,12.60
2018-04-16T18:03:34.026Z,12.00
2018-04-16T18:06:02.297Z,11.20
2018-04-16T18:08:30.600Z,12.60
2018-04-16T18:10:58.876Z,9.13
2018-04-16T18:13:27.166Z,14.30
2018-04-16T18:15:55.504Z,8.60
2018-04-16T18:18:23.814Z,9.53
2018-04-16T18:20:52.085Z,12.80
2018-04-16T18:23:20.405Z,11.20
2018-04-16T18:25:49.487Z,12.73
2018-04-16T18:28:17.846Z,14.27
2018-04-16T18:30:46.468Z,10.63
2018-04-16T18:33:15.961Z,11.60
2018-04-16T18:35:45.007Z,12.97
2018-04-16T18:38:13.393Z,12.33
2018-04-16T18:40:41.698Z,10.03
2018-04-16T18:43:10.832Z,14.17
2018-04-16T18:45:39.374Z,12.20
2018-04-16T18:48:07.710Z,13.30
2018-04-16T18:50:35.994Z,11.97
2018-04-16T18:53:04.314Z,10.93
2018-04-16T18:55:33.348Z,12.33
2018-04-16T18:58:01.668Z,10.90
2018-04-16T19:00:29.993Z,12.87
2018-04-16T19:02:58.295Z,13.00
2018-04-16T19:05:26.697Z,13.20
2018-04-16T19:07:54.967Z,12.63
2018-04-16T19:10:23.325Z,11.27
2018-04-16T19:12:51.649Z,12.10
2018-04-16T19:15:20.736Z,15.27
2018-04-16T19:17:57.664Z,9.97
2018-04-16T19:20:32.354Z,9.90
2018-04-16T19:23:00.641Z,12.37
2018-04-16T19:25:29.718Z,13.50
2018-04-16T19:28:04.433Z,12.63
2018-04-16T19:30:32.827Z,13.73
2018-04-16T19:33:07.611Z,16.03
2018-04-16T19:35:36.184Z,14.13
2018-04-16T19:38:04.443Z,10.95
2018-04-16T19:40:32.770Z,15.13
2018-04-16T19:43:01.188Z,14.70
2018-04-16T19:45:31.115Z,18.87
2018-04-16T19:47:59.426Z,11.30
2018-04-16T19:50:27.782Z,18.07
2018-04-16T19:52:56.109Z,13.80
2018-04-16T19:55:25.203Z,13.27
2018-04-16T19:57:59.177Z,13.30
2018-04-16T20:00:27.502Z,16.03
2018-04-16T20:03:02.270Z,13.77
2018-04-16T20:05:30.540Z,17.80
2018-04-16T20:07:58.827Z,14.67
2018-04-16T20:10:27.141Z,14.82
2018-04-16T20:12:55.468Z,12.77
2018-04-16T20:15:23.840Z,14.73
2018-04-16T20:17:52.125Z,18.85
2018-04-16T20:20:20.434Z,17.13
2018-04-16T20:22:48.735Z,15.00
2018-04-16T20:25:17.802Z,17.23
2018-04-16T20:27:46.079Z,14.20
2018-04-16T20:30:14.381Z,17.20
2018-04-16T20:32:43.472Z,17.53
2018-04-16T20:35:11.759Z,14.47
2018-04-16T20:37:41.705Z,15.63
2018-04-16T20:40:10.019Z,18.80
2018-04-16T20:42:38.329Z,18.30
2018-04-16T20:45:07.391Z,19.00
2018-04-16T20:47:35.693Z,16.77
2018-04-16T20:50:04.745Z,14.67
2018-04-16T20:52:33.022Z,16.33
2018-04-16T20:55:01.304Z,18.07
2018-04-16T20:57:29.643Z,14.20
2018-04-16T20:59:57.932Z,16.00
2018-04-16T21:02:26.228Z,17.83
2018-04-16T21:04:54.487Z,20.97
2018-04-16T21:07:22.763Z,21.63
2018-04-16T21:09:51.040Z,17.93
2018-04-16T21:12:19.330Z,17.70
2018-04-16T21:14:47.687Z,16.20
2018-04-16T21:17:15.985Z,18.10
2018-04-16T21:19:44.282Z,26.33
2018-04-16T21:22:12.537Z,25.97
2018-04-16T21:24:40.798Z,29.53
2018-04-16T21:27:09.107Z,23.37
2018-04-16T21:29:37.364Z,28.03
2018-04-16T21:32:05.659Z,31.77
2018-04-16T21:34:33.944Z,25.40
2018-04-16T21:37:02.217Z,28.00
2018-04-16T21:39:32.128Z,28.27
2018-04-16T21:42:00.398Z,30.00
2018-04-16T21:44:28.854Z,26.60
2018-04-16T21:46:57.141Z,27.03
2018-04-16T21:49:25.422Z,25.07
2018-04-16T21:51:53.746Z,31.00
2018-04-16T21:54:22.258Z,21.33
2018-04-16T21:56:50.576Z,24.63
2018-04-16T21:59:18.844Z,27.23
2018-04-16T22:01:47.077Z,24.80
2018-04-16T22:04:15.411Z,22.03
2018-04-16T22:06:43.711Z,24.40
2018-04-16T22:09:12.806Z,17.73
2018-04-16T22:11:41.850Z,21.70
2018-04-16T22:14:10.107Z,24.20
2018-04-16T22:16:38.410Z,27.47
2018-04-16T22:19:06.698Z,27.43
2018-04-16T22:21:35.020Z,25.33
2018-04-16T22:24:03.288Z,19.67
2018-04-16T22:26:31.520Z,23.30
2018-04-16T22:28:59.796Z,25.27
2018-04-16T22:31:28.075Z,24.47
2018-04-16T22:33:56.355Z,22.40
2018-04-16T22:36:24.667Z,19.10
2018-04-16T22:38:52.945Z,20.80
2018-04-16T22:41:21.233Z,27.00
2018-04-16T22:43:49.513Z,25.97
2018-04-16T22:46:17.813Z,24.40
2018-04-16T22:48:47.283Z,28.83
2018-04-16T22:51:16.307Z,23.87
2018-04-16T22:53:45.688Z,23.83
2018-04-16T22:56:13.973Z,22.50
2018-04-16T22:58:42.262Z,20.80
2018-04-16T23:01:10.572Z,17.47
2018-04-16T23:03:38.856Z,24.50
2018-04-16T23:06:07.895Z,20.70
2018-04-16T23:08:36.157Z,19.13
2018-04-16T23:11:04.400Z,22.43
2018-04-16T23:13:33.460Z,26.87
2018-04-16T23:16:01.731Z,24.47
2018-04-16T23:18:30.794Z,26.90
2018-04-16T23:20:59.947Z,27.63
2018-04-16T23:23:28.985Z,26.90
2018-04-16T23:25:58.014Z,23.73
2018-04-16T23:28:26.343Z,25.30
2018-04-16T23:30:54.661Z,25.50
2018-04-16T23:33:22.984Z,23.67
2018-04-16T23:35:51.350Z,23.73
2018-04-16T23:38:19.597Z,25.27
2018-04-16T23:40:47.907Z,19.13
2018-04-16T23:43:16.191Z,21.53
2018-04-16T23:45:45.246Z,21.27
2018-04-16T23:48:13.501Z,18.40
2018-04-16T23:50:41.814Z,25.93
2018-04-16T23:53:10.087Z,27.90
2018-04-16T23:55:38.329Z,23.87
2018-04-16T23:58:06.634Z,31.50
